Time,TemperatureF,DewpointF,PressureIn,WindDirection,WindDirectionDegrees,WindSpeedMPH,WindSpeedGustMPH,Humidity,HourlyPrecipIn,Conditions,Clouds,dailyrainin,SoftwareType,DateUTC
2013-03-05 00:00:00,37.4,30.2,30.03,NNW,336,5.8,5.8,75,0.00,OVC,,0.00,WeatherDisplay:10.37,2013-03-05 06:00:00,
2013-03-05 00:05:00,37.2,30.0,30.03,NE,38,5.8,5.8,75,0.00,OVC,,0.00,WeatherDisplay:10.37,2013-03-05 06:05:00,
2013-03-05 00:10:00,37.0,29.8,30.03,NE,38,5.8,5.8,75,0.00,CLR,,0.00,WeatherDisplay:10.37,2013-03-05 06:10:00,
2013-03-05 00:15:00,37.0,29.8,30.03,NNW,344,3.6,4.5,75,0.00,OVC,,0.00,WeatherDisplay:10.37,2013-03-05 06:15:00,
2013-03-05 00:20:00,36.9,29.7,30.03,NNE,25,8.1,8.1,75,0.00,OVC,,0.00,WeatherDisplay:10.37,2013-03-05 06:20:00,
2013-03-05 00:25:00,36.9,29.7,30.03,WNW,290,3.5,0.0,75,0.00,OVC,,0.00,WeatherDisplay:10.37,2013-03-05 06:25:00,
2013-03-05 00:30:00,36.9,29.7,30.03,NE,39,3.6,0.0,75,0.00,OVC,,0.00,WeatherDisplay:10.37,2013-03-05 06:30:00,
2013-03-05 00:35:00,36.9,29.7,30.03,NNW,344,4.6,4.6,75,0.00,OVC,,0.00,WeatherDisplay:10.37,2013-03-05 06:35:00,
2013-03-05 00:41:00,36.9,29.7,30.03,NW,314,3.6,3.6,75,0.00,OVC,,0.00,WeatherDisplay:10.37,2013-03-05 06:41:00,
2013-03-05 00:46:00,36.9,29.7,30.03,NNW,328,4.6,4.6,75,0.00,OVC,,0.00,WeatherDisplay:10.37,2013-03-05 06:46:00,
2013-03-05 00:51:00,36.9,29.7,30.03,NW,304,3.5,3.5,75,0.00,OVC,,0.00,WeatherDisplay:10.37,2013-03-05 06:51:00,
2013-03-05 00:56:00,36.7,29.5,30.03,NW,320,3.5,0.0,75,0.00,OVC,,0.00,WeatherDisplay:10.37,2013-03-05 06:56:00,
2013-03-05 01:01:00,36.7,29.5,30.03,NNW,337,3.6,0.0,75,0.00,OVC,,0.00,WeatherDisplay:10.37,2013-03-05 07:01:00,
2013-03-05 01:06:00,36.7,29.5,30.06,WNW,300,5.8,5.8,75,0.00,OVC,,0.00,WeatherDisplay:10.37,2013-03-05 07:06:00,
2013-03-05 01:11:00,36.7,29.5,30.06,NW,315,4.6,4.6,75,0.00,OVC,,0.00,WeatherDisplay:10.37,2013-03-05 07:11:00,
2013-03-05 01:16:00,36.5,29.3,30.06,West,269,3.5,0.0,75,0.00,OVC,,0.00,WeatherDisplay:10.37,2013-03-05 07:16:00,
2013-03-05 01:21:00,36.5,29.3,30.06,NNW,347,4.6,4.6,75,0.00,OVC,,0.00,WeatherDisplay:10.37,2013-03-05 07:21:00,
2013-03-05 01:26:00,36.7,29.5,30.06,WNW,301,5.8,5.8,75,0.00,OVC,,0.00,WeatherDisplay:10.37,2013-03-05 07:26:00,
2013-03-05 01:31:00,36.5,29.3,30.06,WNW,285,5.8,5.8,75,0.00,OVC,,0.00,WeatherDisplay:10.37,2013-03-05 07:31:00,
2013-03-05 01:36:00,36.5,29.3,30.06,NW,309,3.5,3.5,75,0.00,OVC,,0.00,WeatherDisplay:10.37,2013-03-05 07:36:00,
2013-03-05 01:41:00,36.5,29.3,30.06,NW,310,3.5,3.5,75,0.00,OVC,,0.00,WeatherDisplay:10.37,2013-03-05 07:41:00,
2013-03-05 01:46:00,36.5,29.3,30.06,West,260,3.6,3.6,75,0.00,OVC,,0.00,WeatherDisplay:10.37,2013-03-05 07:46:00,
2013-03-05 01:51:00,36.5,29.3,30.06,NNE,31,5.8,5.8,75,0.00,OVC,,0.00,WeatherDisplay:10.37,2013-03-05 07:51:00,
2013-03-05 01:56:00,36.3,29.2,30.06,NW,307,6.3,6.3,75,0.00,OVC,,0.00,WeatherDisplay:10.37,2013-03-05 07:56:00,
2013-03-05 02:01:00,36.3,29.2,30.06,NNW,337,9.2,9.2,75,0.00,OVC,,0.00,WeatherDisplay:10.37,2013-03-05 08:01:00,
2013-03-05 02:06:00,36.1,29.0,30.09,North,349,9.2,9.2,75,0.00,OVC,,0.00,WeatherDisplay:10.37,2013-03-05 08:06:00,
2013-03-05 02:11:00,36.0,28.8,30.09,NNW,330,8.1,8.1,75,0.00,OVC,,0.00,WeatherDisplay:10.37,2013-03-05 08:11:00,
2013-03-05 02:16:00,36.0,28.8,30.09,NW,311,10.4,10.4,75,0.00,OVC,,0.00,WeatherDisplay:10.37,2013-03-05 08:16:00,
2013-03-05 02:21:00,35.8,28.6,30.09,West,271,9.2,9.2,75,0.00,OVC,,0.00,WeatherDisplay:10.37,2013-03-05 08:21:00,
2013-03-05 02:26:00,35.8,25.5,30.09,NW,316,10.4,10.4,66,0.00,OVC,,0.00,WeatherDisplay:10.37,2013-03-05 08:26:00,
2013-03-05 02:31:00,35.8,25.5,30.09,WNW,289,8.1,8.1,66,0.00,OVC,,0.00,WeatherDisplay:10.37,2013-03-05 08:31:00,
2013-03-05 02:36:00,35.6,25.4,30.09,NNE,19,5.8,5.8,66,0.00,OVC,,0.00,WeatherDisplay:10.37,2013-03-05 08:36:00,
2013-03-05 02:41:00,35.6,25.4,30.09,North,8,5.8,5.8,66,0.00,OVC,,0.00,WeatherDisplay:10.37,2013-03-05 08:41:00,
2013-03-05 02:46:00,35.6,25.4,30.09,WNW,292,8.1,8.1,66,0.00,OVC,,0.00,WeatherDisplay:10.37,2013-03-05 08:46:00,
2013-03-05 02:51:00,35.4,25.2,30.09,WNW,301,5.8,5.8,66,0.00,OVC,,0.00,WeatherDisplay:10.37,2013-03-05 08:51:00,
2013-03-05 02:56:00,35.4,25.2,30.09,NW,310,5.8,5.8,66,0.00,OVC,,0.00,WeatherDisplay:10.37,2013-03-05 08:56:00,
2013-03-05 03:01:00,35.4,25.2,30.09,North,1,8.1,8.1,66,0.00,OVC,,0.00,WeatherDisplay:10.37,2013-03-05 09:01:00,
2013-03-05 03:06:00,35.2,25.0,30.09,WNW,295,8.1,8.1,66,0.00,OVC,,0.00,WeatherDisplay:10.37,2013-03-05 09:06:00,
2013-03-05 03:11:00,35.1,24.8,30.09,NW,311,9.2,9.2,66,0.00,OVC,,0.00,WeatherDisplay:10.37,2013-03-05 09:11:00,
2013-03-05 03:16:00,35.1,24.8,30.09,NNW,338,5.8,5.8,66,0.00,OVC,,0.00,WeatherDisplay:10.37,2013-03-05 09:16:00,
2013-03-05 03:21:00,34.9,17.6,30.09,WNW,296,9.2,9.2,49,0.00,OVC,,0.00,WeatherDisplay:10.37,2013-03-05 09:21:00,
2013-03-05 03:26:00,34.7,17.5,30.09,WNW,286,8.1,8.1,49,0.00,OVC,,0.00,WeatherDisplay:10.37,2013-03-05 09:26:00,
2013-03-05 03:31:00,34.5,17.3,30.09,West,278,8.1,8.1,49,0.00,OVC,,0.00,WeatherDisplay:10.37,2013-03-05 09:31:00,
2013-03-05 03:36:00,34.3,17.1,30.12,NW,311,8.1,8.1,49,0.00,OVC,,0.00,WeatherDisplay:10.37,2013-03-05 09:36:00,
2013-03-05 03:41:00,34.2,17.0,30.12,WSW,254,8.1,8.1,49,0.00,OVC,,0.00,WeatherDisplay:10.37,2013-03-05 09:41:00,
2013-03-05 03:46:00,33.8,16.6,30.12,North,357,8.1,8.1,49,0.00,OVC,,0.00,WeatherDisplay:10.37,2013-03-05 09:46:00,
2013-03-05 03:51:00,33.8,16.6,30.12,NNW,329,10.4,10.4,49,0.00,OVC,,0.00,WeatherDisplay:10.37,2013-03-05 09:51:00,
2013-03-05 03:56:00,33.6,16.5,30.12,NW,325,8.1,8.1,49,0.00,OVC,,0.00,WeatherDisplay:10.37,2013-03-05 09:56:00,
2013-03-05 04:01:00,33.3,16.1,30.12,NNW,348,5.8,5.8,49,0.00,OVC,,0.00,WeatherDisplay:10.37,2013-03-05 10:01:00,
2013-03-05 04:06:00,33.1,16.0,30.12,West,267,5.8,5.8,49,0.00,OVC,,0.00,WeatherDisplay:10.37,2013-03-05 10:06:00,
2013-03-05 04:11:00,32.7,15.6,30.12,North,1,6.9,6.9,49,0.00,OVC,,0.00,WeatherDisplay:10.37,2013-03-05 10:11:00,
2013-03-05 04:16:00,32.5,15.5,30.12,NW,316,11.5,11.5,49,0.00,OVC,,0.00,WeatherDisplay:10.37,2013-03-05 10:16:00,
2013-03-05 04:21:00,32.4,15.3,30.12,West,280,3.5,3.5,49,0.00,OVC,,0.00,WeatherDisplay:10.37,2013-03-05 10:21:00,
2013-03-05 04:26:00,32.0,15.0,30.12,West,267,5.8,5.8,49,0.00,OVC,,0.00,WeatherDisplay:10.37,2013-03-05 10:26:00,
2013-03-05 04:31:00,31.8,14.8,30.12,NW,304,5.8,5.8,49,0.00,OVC,,0.00,WeatherDisplay:10.37,2013-03-05 10:31:00,
2013-03-05 04:36:00,31.5,14.5,30.15,WSW,239,10.4,10.4,49,0.00,OVC,,0.00,WeatherDisplay:10.37,2013-03-05 10:36:00,
2013-03-05 04:41:00,31.1,14.1,30.15,SSW,199,5.8,5.8,49,0.00,OVC,,0.00,WeatherDisplay:10.37,2013-03-05 10:41:00,
2013-03-05 04:46:00,30.7,13.8,30.15,WSW,241,5.8,5.8,49,0.00,OVC,,0.00,WeatherDisplay:10.37,2013-03-05 10:46:00,
2013-03-05 04:51:00,30.4,13.5,30.15,NNW,337,9.2,9.2,49,0.00,OVC,,0.00,WeatherDisplay:10.37,2013-03-05 10:51:00,
2013-03-05 04:56:00,30.0,13.1,30.15,NNE,15,8.1,8.1,49,0.00,OVC,,0.00,WeatherDisplay:10.37,2013-03-05 10:56:00,
2013-03-05 05:01:00,29.8,13.0,30.15,NNE,24,9.2,9.2,49,0.00,OVC,,0.00,WeatherDisplay:10.37,2013-03-05 11:01:00,
2013-03-05 05:06:00,29.7,12.8,30.15,WNW,299,10.4,10.4,49,0.00,OVC,,0.00,WeatherDisplay:10.37,2013-03-05 11:06:00,
2013-03-05 05:11:00,29.7,12.8,30.15,WNW,294,8.1,8.1,49,0.00,OVC,,0.00,WeatherDisplay:10.37,2013-03-05 11:11:00,
2013-03-05 05:16:00,29.5,14.4,30.15,WSW,253,5.8,5.8,53,0.00,FEW,,0.00,WeatherDisplay:10.37,2013-03-05 11:16:00,
2013-03-05 05:21:00,29.5,14.4,30.15,NW,320,5.8,5.8,53,0.00,FEW,,0.00,WeatherDisplay:10.37,2013-03-05 11:21:00,
2013-03-05 05:26:00,29.3,14.3,30.15,NNW,330,5.8,5.8,53,0.00,FEW,,0.00,WeatherDisplay:10.37,2013-03-05 11:26:00,
2013-03-05 05:31:00,29.1,14.1,30.15,North,7,5.8,5.8,53,0.00,FEW,,0.00,WeatherDisplay:10.37,2013-03-05 11:31:00,
2013-03-05 05:36:00,28.9,13.9,30.18,WNW,298,3.5,3.5,53,0.00,FEW,,0.00,WeatherDisplay:10.37,2013-03-05 11:36:00,
2013-03-05 05:41:00,28.6,13.6,30.18,WSW,258,9.2,9.2,53,0.00,FEW,,0.00,WeatherDisplay:10.37,2013-03-05 11:41:00,
2013-03-05 05:46:00,28.6,13.6,30.18,NW,323,5.8,5.8,53,0.00,FEW,,0.00,WeatherDisplay:10.37,2013-03-05 11:46:00,
2013-03-05 05:51:00,28.6,13.6,30.18,WSW,246,4.5,4.5,53,0.00,FEW,,0.00,WeatherDisplay:10.37,2013-03-05 11:51:00,
2013-03-05 05:56:00,28.4,13.4,30.18,West,263,5.8,5.8,53,0.00,FEW,,0.00,WeatherDisplay:10.37,2013-03-05 11:56:00,
2013-03-05 06:01:00,28.2,13.3,30.18,WSW,258,8.1,8.1,53,0.00,FEW,,0.00,WeatherDisplay:10.37,2013-03-05 12:01:00,
2013-03-05 06:06:00,28.0,13.1,30.18,West,268,5.8,5.8,53,0.00,FEW,,0.00,WeatherDisplay:10.37,2013-03-05 12:06:00,
2013-03-05 06:11:00,27.9,12.9,30.18,WNW,294,5.8,5.8,53,0.00,CLR,,0.00,WeatherDisplay:10.37,2013-03-05 12:11:00,
2013-03-05 06:16:00,27.9,12.9,30.18,WNW,284,6.3,6.3,53,0.00,CLR,,0.00,WeatherDisplay:10.37,2013-03-05 12:16:00,
2013-03-05 06:21:00,27.9,12.9,30.18,NW,319,5.8,5.8,53,0.00,CLR,,0.00,WeatherDisplay:10.37,2013-03-05 12:21:00,
2013-03-05 06:26:00,27.9,12.9,30.18,West,264,8.1,8.1,53,0.00,CLR,,0.00,WeatherDisplay:10.37,2013-03-05 12:26:00,
2013-03-05 06:31:00,27.7,12.8,30.18,North,1,5.8,5.8,53,0.00,CLR,,0.00,WeatherDisplay:10.37,2013-03-05 12:31:00,
2013-03-05 06:36:00,27.5,12.6,30.18,WSW,249,5.8,5.8,53,0.00,CLR,,0.00,WeatherDisplay:10.37,2013-03-05 12:36:00,
2013-03-05 06:41:00,27.5,12.6,30.18,NNW,327,5.8,5.8,53,0.00,CLR,,0.00,WeatherDisplay:10.37,2013-03-05 12:41:00,
2013-03-05 06:46:00,27.3,12.4,30.18,NNW,347,5.8,5.8,53,0.00,CLR,,0.00,WeatherDisplay:10.37,2013-03-05 12:46:00,
2013-03-05 06:51:00,27.3,12.4,30.18,NW,326,8.1,8.1,53,0.00,CLR,,0.00,WeatherDisplay:10.37,2013-03-05 12:51:00,
2013-03-05 06:56:00,27.1,12.3,30.18,South,173,8.0,8.0,53,0.00,CLR,,0.00,WeatherDisplay:10.37,2013-03-05 12:56:00,
2013-03-05 07:01:00,27.1,13.1,30.18,NNE,30,3.5,0.0,55,0.00,CLR,,0.00,WeatherDisplay:10.37,2013-03-05 13:01:00,
2013-03-05 07:06:00,27.0,12.9,30.18,SW,226,5.8,5.8,55,0.00,CLR,,0.00,WeatherDisplay:10.37,2013-03-05 13:06:00,
2013-03-05 07:11:00,27.0,12.9,30.18,NW,316,3.5,0.0,55,0.00,CLR,,0.00,WeatherDisplay:10.37,2013-03-05 13:11:00,
2013-03-05 07:16:00,27.0,12.9,30.18,West,280,5.8,5.8,55,0.00,CLR,,0.00,WeatherDisplay:10.37,2013-03-05 13:16:00,
2013-03-05 07:21:00,27.0,12.9,30.21,SW,225,3.5,3.5,55,0.00,CLR,,0.00,WeatherDisplay:10.37,2013-03-05 13:21:00,
2013-03-05 07:26:00,27.0,12.9,30.21,West,278,3.5,3.5,55,0.00,CLR,,0.00,WeatherDisplay:10.37,2013-03-05 13:26:00,
2013-03-05 07:31:00,27.1,13.1,30.21,WSW,256,10.4,10.4,55,0.00,CLR,,0.00,WeatherDisplay:10.37,2013-03-05 13:31:00,
2013-03-05 07:36:00,27.1,13.1,30.21,NNW,345,8.1,8.1,55,0.00,CLR,,0.00,WeatherDisplay:10.37,2013-03-05 13:36:00,
2013-03-05 07:41:00,27.5,13.4,30.21,WNW,303,5.8,5.8,55,0.00,CLR,,0.00,WeatherDisplay:10.37,2013-03-05 13:41:00,
2013-03-05 07:46:00,27.7,13.6,30.21,NNW,329,3.5,3.5,55,0.00,CLR,,0.00,WeatherDisplay:10.37,2013-03-05 13:46:00,
2013-03-05 07:51:00,27.9,13.8,30.21,WNW,293,6.9,6.9,55,0.00,CLR,,0.00,WeatherDisplay:10.37,2013-03-05 13:51:00,
2013-03-05 07:56:00,28.0,13.9,30.21,NNW,338,4.6,4.6,55,0.00,CLR,,0.00,WeatherDisplay:10.37,2013-03-05 13:56:00,
2013-03-05 08:01:00,28.2,14.9,30.21,South,186,9.2,9.2,57,0.00,CLR,,0.00,WeatherDisplay:10.37,2013-03-05 14:01:00,
2013-03-05 08:06:00,28.2,14.9,30.21,West,264,5.8,5.8,57,0.00,CLR,,0.00,WeatherDisplay:10.37,2013-03-05 14:06:00,
2013-03-05 08:11:00,28.4,15.1,30.21,NNW,335,5.8,5.8,57,0.00,CLR,,0.00,WeatherDisplay:10.37,2013-03-05 14:11:00,
2013-03-05 08:16:00,28.8,15.4,30.21,NW,321,8.7,8.7,57,0.00,CLR,,0.00,WeatherDisplay:10.37,2013-03-05 14:16:00,
2013-03-05 08:21:00,28.9,15.6,30.21,East,94,5.4,5.4,57,0.00,CLR,,0.00,WeatherDisplay:10.37,2013-03-05 14:21:00,
2013-03-05 08:26:00,29.3,15.9,30.21,NNW,336,5.8,5.8,57,0.00,CLR,,0.00,WeatherDisplay:10.37,2013-03-05 14:26:00,
2013-03-05 08:31:00,29.7,16.3,30.21,West,280,12.7,12.7,57,0.00,CLR,,0.00,WeatherDisplay:10.37,2013-03-05 14:31:00,
2013-03-05 08:36:00,29.8,16.4,30.21,WNW,292,5.8,5.8,57,0.00,CLR,,0.00,WeatherDisplay:10.37,2013-03-05 14:36:00,
2013-03-05 08:41:00,30.4,16.9,30.21,ENE,70,4.6,4.6,57,0.00,CLR,,0.00,WeatherDisplay:10.37,2013-03-05 14:41:00,
2013-03-05 08:46:00,30.9,17.5,30.21,NW,319,8.1,8.1,57,0.00,CLR,,0.00,WeatherDisplay:10.37,2013-03-05 14:46:00,
2013-03-05 08:51:00,31.3,17.8,30.21,West,280,5.8,5.8,57,0.00,CLR,,0.00,WeatherDisplay:10.37,2013-03-05 14:51:00,
2013-03-05 08:56:00,31.6,18.1,30.21,WNW,284,10.4,10.4,57,0.00,CLR,,0.00,WeatherDisplay:10.37,2013-03-05 14:56:00,
2013-03-05 09:01:00,31.8,15.7,30.21,NW,309,8.1,8.1,51,0.00,CLR,,0.00,WeatherDisplay:10.37,2013-03-05 15:01:00,
2013-03-05 09:06:00,32.0,15.9,30.21,NNW,344,10.4,10.4,51,0.00,CLR,,0.00,WeatherDisplay:10.37,2013-03-05 15:06:00,
2013-03-05 09:11:00,32.2,16.1,30.21,North,4,5.8,5.8,51,0.00,CLR,,0.00,WeatherDisplay:10.37,2013-03-05 15:11:00,
2013-03-05 09:16:00,32.7,16.6,30.21,SW,236,4.6,4.6,51,0.00,CLR,,0.00,WeatherDisplay:10.37,2013-03-05 15:16:00,
2013-03-05 09:21:00,33.1,16.9,30.21,West,281,5.8,5.8,51,0.00,CLR,,0.00,WeatherDisplay:10.37,2013-03-05 15:21:00,
2013-03-05 09:26:00,32.9,16.7,30.21,West,265,11.5,11.5,51,0.00,CLR,,0.00,WeatherDisplay:10.37,2013-03-05 15:26:00,
2013-03-05 09:31:00,33.1,16.9,30.21,WNW,295,9.2,9.2,51,0.00,CLR,,0.00,WeatherDisplay:10.37,2013-03-05 15:31:00,
2013-03-05 09:36:00,33.4,17.2,30.21,NNE,22,8.1,8.1,51,0.00,CLR,,0.00,WeatherDisplay:10.37,2013-03-05 15:36:00,
2013-03-05 09:41:00,33.3,17.1,30.21,NNW,329,8.1,8.1,51,0.00,CLR,,0.00,WeatherDisplay:10.37,2013-03-05 15:41:00,
2013-03-05 09:46:00,33.3,17.1,30.21,North,4,9.2,9.2,51,0.00,CLR,,0.00,WeatherDisplay:10.37,2013-03-05 15:46:00,
2013-03-05 09:51:00,33.8,17.6,30.24,SW,232,3.5,3.5,51,0.00,CLR,,0.00,WeatherDisplay:10.37,2013-03-05 15:51:00,
2013-03-05 09:56:00,33.8,17.6,30.24,NNE,13,8.3,8.3,51,0.00,CLR,,0.00,WeatherDisplay:10.37,2013-03-05 15:56:00,
2013-03-05 10:01:00,33.8,16.2,30.24,WNW,290,8.1,8.1,48,0.00,BKN,,0.00,WeatherDisplay:10.37,2013-03-05 16:01:00,
2013-03-05 10:06:00,33.8,16.2,30.24,South,188,5.8,5.8,48,0.00,BKN,,0.00,WeatherDisplay:10.37,2013-03-05 16:06:00,
2013-03-05 10:11:00,34.2,16.5,30.24,North,357,5.8,5.8,48,0.00,BKN,,0.00,WeatherDisplay:10.37,2013-03-05 16:11:00,
2013-03-05 10:16:00,34.3,16.7,30.24,NW,319,6.9,6.9,48,0.00,BKN,,0.00,WeatherDisplay:10.37,2013-03-05 16:16:00,
2013-03-05 10:21:00,34.5,16.8,30.24,WNW,295,8.1,8.1,48,0.00,BKN,,0.00,WeatherDisplay:10.37,2013-03-05 16:21:00,
2013-03-05 10:26:00,34.7,17.0,30.24,NE,50,5.8,5.8,48,0.00,BKN,,0.00,WeatherDisplay:10.37,2013-03-05 16:26:00,
2013-03-05 10:32:00,34.9,17.2,30.24,NNW,335,9.2,9.2,48,0.00,BKN,,0.00,WeatherDisplay:10.37,2013-03-05 16:32:00,
2013-03-05 10:37:00,34.9,17.2,30.24,ENE,70,8.1,8.1,48,0.00,BKN,,0.00,WeatherDisplay:10.37,2013-03-05 16:37:00,
2013-03-05 10:42:00,35.1,17.3,30.24,West,271,8.1,8.1,48,0.00,BKN,,0.00,WeatherDisplay:10.37,2013-03-05 16:42:00,
2013-03-05 10:47:00,35.2,17.5,30.24,NW,305,8.1,8.1,48,0.00,BKN,,0.00,WeatherDisplay:10.37,2013-03-05 16:47:00,
2013-03-05 10:52:00,35.4,17.7,30.24,North,8,10.4,10.4,48,0.00,BKN,,0.00,WeatherDisplay:10.37,2013-03-05 16:52:00,
2013-03-05 10:57:00,35.2,17.5,30.24,NNW,344,12.7,12.7,48,0.00,BKN,,0.00,WeatherDisplay:10.37,2013-03-05 16:57:00,
2013-03-05 11:02:00,35.1,16.8,30.24,West,277,11.4,11.4,47,0.00,OVC,,0.00,WeatherDisplay:10.37,2013-03-05 17:02:00,
2013-03-05 11:07:00,35.2,17.0,30.24,NW,308,10.4,10.4,47,0.00,OVC,,0.00,WeatherDisplay:10.37,2013-03-05 17:07:00,
2013-03-05 11:12:00,35.2,17.0,30.24,North,357,9.2,9.2,47,0.00,OVC,,0.00,WeatherDisplay:10.37,2013-03-05 17:12:00,
2013-03-05 11:17:00,35.4,17.2,30.24,West,263,8.1,8.1,47,0.00,OVC,,0.00,WeatherDisplay:10.37,2013-03-05 17:17:00,
2013-03-05 11:22:00,35.8,17.5,30.24,North,350,8.1,8.1,47,0.00,OVC,,0.00,WeatherDisplay:10.37,2013-03-05 17:22:00,
2013-03-05 11:27:00,36.1,17.8,30.24,NW,321,5.8,5.8,47,0.00,OVC,,0.00,WeatherDisplay:10.37,2013-03-05 17:27:00,
2013-03-05 11:32:00,36.7,18.3,30.24,North,357,8.1,8.1,47,0.00,OVC,,0.00,WeatherDisplay:10.37,2013-03-05 17:32:00,
2013-03-05 11:37:00,37.2,18.8,30.24,WSW,250,8.1,8.1,47,0.00,OVC,,0.00,WeatherDisplay:10.37,2013-03-05 17:37:00,
2013-03-05 11:42:00,37.9,19.5,30.24,NNE,19,8.1,8.1,47,0.00,OVC,,0.00,WeatherDisplay:10.37,2013-03-05 17:42:00,
2013-03-05 11:47:00,38.1,19.6,30.24,NNW,339,5.8,5.8,47,0.00,OVC,,0.00,WeatherDisplay:10.37,2013-03-05 17:47:00,
2013-03-05 11:52:00,37.8,19.3,30.24,North,350,8.1,8.1,47,0.00,OVC,,0.00,WeatherDisplay:10.37,2013-03-05 17:52:00,
2013-03-05 11:57:00,37.4,19.0,30.24,WNW,295,9.2,9.2,47,0.00,OVC,,0.00,WeatherDisplay:10.37,2013-03-05 17:57:00,
2013-03-05 12:02:00,37.8,19.3,30.24,North,352,10.1,10.1,47,0.00,BKN,,0.00,WeatherDisplay:10.37,2013-03-05 18:02:00,
2013-03-05 12:07:00,38.3,19.8,30.24,NNW,338,10.4,10.4,47,0.00,BKN,,0.00,WeatherDisplay:10.37,2013-03-05 18:07:00,
2013-03-05 12:12:00,38.5,20.0,30.24,North,1,8.1,8.1,47,0.00,BKN,,0.00,WeatherDisplay:10.37,2013-03-05 18:12:00,
2013-03-05 12:17:00,37.9,19.5,30.24,WNW,294,11.5,11.5,47,0.00,BKN,,0.00,WeatherDisplay:10.37,2013-03-05 18:17:00,
2013-03-05 12:22:00,38.1,19.6,30.24,North,4,11.5,11.5,47,0.00,BKN,,0.00,WeatherDisplay:10.37,2013-03-05 18:22:00,
2013-03-05 12:27:00,38.7,20.1,30.24,NNW,333,10.4,10.4,47,0.00,BKN,,0.00,WeatherDisplay:10.37,2013-03-05 18:27:00,
2013-03-05 12:32:00,38.7,20.1,30.24,NNE,16,8.1,8.1,47,0.00,BKN,,0.00,WeatherDisplay:10.37,2013-03-05 18:32:00,
2013-03-05 12:37:00,38.8,20.3,30.24,SW,225,9.2,9.2,47,0.00,BKN,,0.00,WeatherDisplay:10.37,2013-03-05 18:37:00,
2013-03-05 12:42:00,39.0,20.5,30.24,SW,220,15.0,15.0,47,0.00,BKN,,0.00,WeatherDisplay:10.37,2013-03-05 18:42:00,
2013-03-05 12:47:00,38.8,20.3,30.24,North,1,8.3,8.3,47,0.00,BKN,,0.00,WeatherDisplay:10.37,2013-03-05 18:47:00,
2013-03-05 12:52:00,39.2,20.6,30.24,WNW,299,11.5,11.5,47,0.00,BKN,,0.00,WeatherDisplay:10.37,2013-03-05 18:52:00,
2013-03-05 12:57:00,39.4,20.8,30.24,West,273,11.5,11.5,47,0.00,BKN,,0.00,WeatherDisplay:10.37,2013-03-05 18:57:00,
2013-03-05 13:02:00,39.7,20.6,30.24,NNE,33,8.3,8.3,46,0.00,BKN,,0.00,WeatherDisplay:10.37,2013-03-05 19:02:00,
2013-03-05 13:07:00,39.6,20.5,30.24,NW,307,9.2,9.2,46,0.00,BKN,,0.00,WeatherDisplay:10.37,2013-03-05 19:07:00,
2013-03-05 13:12:00,39.7,20.6,30.24,NE,42,5.8,5.8,46,0.00,BKN,,0.00,WeatherDisplay:10.37,2013-03-05 19:12:00,
2013-03-05 13:17:00,40.3,21.1,30.24,NW,321,5.8,5.8,46,0.00,BKN,,0.00,WeatherDisplay:10.37,2013-03-05 19:17:00,
2013-03-05 13:22:00,40.5,21.3,30.24,WNW,282,8.1,8.1,46,0.00,BKN,,0.00,WeatherDisplay:10.37,2013-03-05 19:22:00,
2013-03-05 13:27:00,40.5,21.3,30.24,NNW,338,9.2,9.2,46,0.00,BKN,,0.00,WeatherDisplay:10.37,2013-03-05 19:27:00,
2013-03-05 13:32:00,40.5,21.3,30.24,West,263,8.1,8.1,46,0.00,BKN,,0.00,WeatherDisplay:10.37,2013-03-05 19:32:00,
2013-03-05 13:37:00,40.6,21.4,30.24,North,7,6.9,6.9,46,0.00,BKN,,0.00,WeatherDisplay:10.37,2013-03-05 19:37:00,
2013-03-05 13:42:00,40.5,21.3,30.24,North,1,8.1,8.1,46,0.00,BKN,,0.00,WeatherDisplay:10.37,2013-03-05 19:42:00,
2013-03-05 13:47:00,39.9,20.8,30.24,NNW,332,11.5,11.5,46,0.00,BKN,,0.00,WeatherDisplay:10.37,2013-03-05 19:47:00,
2013-03-05 13:52:00,39.9,20.8,30.24,West,267,8.3,8.3,46,0.00,BKN,,0.00,WeatherDisplay:10.37,2013-03-05 19:52:00,
2013-03-05 13:57:00,39.9,20.8,30.24,WNW,290,12.7,12.7,46,0.00,BKN,,0.00,WeatherDisplay:10.37,2013-03-05 19:57:00,
2013-03-05 14:02:00,39.6,20.5,30.24,NNW,343,10.1,10.1,46,0.00,BKN,,0.00,WeatherDisplay:10.37,2013-03-05 20:02:00,
2013-03-05 14:07:00,39.4,20.3,30.24,North,1,5.8,6.7,46,0.00,BKN,,0.00,WeatherDisplay:10.37,2013-03-05 20:07:00,
2013-03-05 14:12:00,39.2,20.1,30.24,NNW,330,10.4,10.4,46,0.00,BKN,,0.00,WeatherDisplay:10.37,2013-03-05 20:12:00,
2013-03-05 14:17:00,39.6,20.5,30.24,WNW,291,12.7,12.7,46,0.00,BKN,,0.00,WeatherDisplay:10.37,2013-03-05 20:17:00,
2013-03-05 14:22:00,39.4,19.3,30.27,WNW,302,9.2,9.2,44,0.00,BKN,,0.00,WeatherDisplay:10.37,2013-03-05 20:22:00,
2013-03-05 14:27:00,39.4,19.3,30.27,West,272,8.1,8.1,44,0.00,BKN,,0.00,WeatherDisplay:10.37,2013-03-05 20:27:00,
2013-03-05 14:32:00,39.6,19.4,30.27,NW,306,10.4,10.4,44,0.00,BKN,,0.00,WeatherDisplay:10.37,2013-03-05 20:32:00,
2013-03-05 14:37:00,39.7,19.6,30.24,NW,317,9.2,9.2,44,0.00,BKN,,0.00,WeatherDisplay:10.37,2013-03-05 20:37:00,
2013-03-05 14:42:00,40.3,20.1,30.24,West,273,5.8,5.8,44,0.00,BKN,,0.00,WeatherDisplay:10.37,2013-03-05 20:42:00,
2013-03-05 14:47:00,39.6,19.4,30.24,NNW,340,8.1,8.1,44,0.00,BKN,,0.00,WeatherDisplay:10.37,2013-03-05 20:47:00,
2013-03-05 14:52:00,39.4,19.3,30.27,South,180,8.1,8.1,44,0.00,BKN,,0.00,WeatherDisplay:10.37,2013-03-05 20:52:00,
2013-03-05 14:57:00,39.2,19.1,30.27,NNW,331,8.1,8.1,44,0.00,BKN,,0.00,WeatherDisplay:10.37,2013-03-05 20:57:00,
2013-03-05 15:02:00,39.0,18.9,30.27,NNE,24,5.8,5.8,44,0.00,SCT,,0.00,WeatherDisplay:10.37,2013-03-05 21:02:00,
2013-03-05 15:07:00,39.0,18.9,30.27,NW,324,12.7,12.7,44,0.00,SCT,,0.00,WeatherDisplay:10.37,2013-03-05 21:07:00,
2013-03-05 15:12:00,38.7,18.6,30.27,NNE,13,9.2,9.2,44,0.00,SCT,,0.00,WeatherDisplay:10.37,2013-03-05 21:12:00,
2013-03-05 15:17:00,38.3,18.3,30.27,WNW,286,6.9,6.9,44,0.00,SCT,,0.00,WeatherDisplay:10.37,2013-03-05 21:17:00,
2013-03-05 15:22:00,38.3,18.3,30.27,SW,230,5.8,5.8,44,0.00,SCT,,0.00,WeatherDisplay:10.37,2013-03-05 21:22:00,
2013-03-05 15:27:00,38.5,18.4,30.27,North,357,12.7,12.7,44,0.00,SCT,,0.00,WeatherDisplay:10.37,2013-03-05 21:27:00,
2013-03-05 15:32:00,39.0,18.9,30.27,West,263,5.8,5.8,44,0.00,SCT,,0.00,WeatherDisplay:10.37,2013-03-05 21:32:00,
2013-03-05 15:37:00,39.2,19.1,30.27,NW,304,5.8,5.8,44,0.00,SCT,,0.00,WeatherDisplay:10.37,2013-03-05 21:37:00,
2013-03-05 15:42:00,39.4,19.3,30.27,North,10,10.4,10.4,44,0.00,SCT,,0.00,WeatherDisplay:10.37,2013-03-05 21:42:00,
2013-03-05 15:47:00,39.0,18.9,30.27,NNW,346,12.7,12.7,44,0.00,SCT,,0.00,WeatherDisplay:10.37,2013-03-05 21:47:00,
2013-03-05 15:52:00,38.7,18.6,30.27,West,278,12.7,12.7,44,0.00,SCT,,0.00,WeatherDisplay:10.37,2013-03-05 21:52:00,
2013-03-05 15:57:00,38.1,18.1,30.27,NNW,348,8.1,8.1,44,0.00,SCT,,0.00,WeatherDisplay:10.37,2013-03-05 21:57:00,
2013-03-05 16:02:00,37.8,17.2,30.27,West,279,8.1,8.1,43,0.00,SCT,,0.00,WeatherDisplay:10.37,2013-03-05 22:02:00,
2013-03-05 16:07:00,37.6,17.1,30.27,NNE,31,8.1,8.1,43,0.00,SCT,,0.00,WeatherDisplay:10.37,2013-03-05 22:07:00,
2013-03-05 16:12:00,37.8,17.2,30.27,NW,312,9.2,9.2,43,0.00,SCT,,0.00,WeatherDisplay:10.37,2013-03-05 22:12:00,
2013-03-05 16:17:00,37.8,17.2,30.27,NNE,16,8.1,8.1,43,0.00,SCT,,0.00,WeatherDisplay:10.37,2013-03-05 22:17:00,
2013-03-05 16:22:00,38.1,17.6,30.27,NNE,27,8.1,8.1,43,0.00,SCT,,0.00,WeatherDisplay:10.37,2013-03-05 22:22:00,
2013-03-05 16:27:00,38.5,17.9,30.27,WNW,284,11.5,11.5,43,0.00,SCT,,0.00,WeatherDisplay:10.37,2013-03-05 22:27:00,
2013-03-05 16:32:00,38.7,18.1,30.27,WSW,254,12.7,12.7,43,0.00,SCT,,0.00,WeatherDisplay:10.37,2013-03-05 22:32:00,
2013-03-05 16:38:00,39.0,18.4,30.27,WNW,283,10.4,10.4,43,0.00,SCT,,0.00,WeatherDisplay:10.37,2013-03-05 22:38:00,
2013-03-05 16:43:00,39.4,18.7,30.27,WNW,282,6.9,6.9,43,0.00,SCT,,0.00,WeatherDisplay:10.37,2013-03-05 22:43:00,
2013-03-05 16:48:00,39.4,18.7,30.27,SSW,210,5.8,5.8,43,0.00,SCT,,0.00,WeatherDisplay:10.37,2013-03-05 22:48:00,
2013-03-05 16:53:00,39.2,18.5,30.30,NNW,331,8.1,8.1,43,0.00,SCT,,0.00,WeatherDisplay:10.37,2013-03-05 22:53:00,
2013-03-05 16:58:00,38.8,18.2,30.30,North,357,5.8,5.8,43,0.00,SCT,,0.00,WeatherDisplay:10.37,2013-03-05 22:58:00,
2013-03-05 17:03:00,38.5,17.9,30.30,NE,50,9.2,9.2,43,0.00,SCT,,0.00,WeatherDisplay:10.37,2013-03-05 23:03:00,
2013-03-05 17:08:00,37.9,17.4,30.30,NW,314,8.1,8.1,43,0.00,SCT,,0.00,WeatherDisplay:10.37,2013-03-05 23:08:00,
2013-03-05 17:13:00,37.6,17.1,30.30,NNW,338,5.8,5.8,43,0.00,FEW,,0.00,WeatherDisplay:10.37,2013-03-05 23:13:00,
2013-03-05 17:18:00,37.4,16.9,30.30,NW,318,8.1,8.1,43,0.00,FEW,,0.00,WeatherDisplay:10.37,2013-03-05 23:18:00,
2013-03-05 17:23:00,37.0,16.6,30.30,WNW,286,4.0,4.9,43,0.00,FEW,,0.00,WeatherDisplay:10.37,2013-03-05 23:23:00,
2013-03-05 17:28:00,36.9,16.4,30.30,West,275,8.1,8.1,43,0.00,FEW,,0.00,WeatherDisplay:10.37,2013-03-05 23:28:00,
2013-03-05 17:33:00,36.7,16.3,30.30,SE,134,8.1,8.1,43,0.00,FEW,,0.00,WeatherDisplay:10.37,2013-03-05 23:33:00,
2013-03-05 17:38:00,36.3,15.9,30.30,NNE,12,5.8,5.8,43,0.00,FEW,,0.00,WeatherDisplay:10.37,2013-03-05 23:38:00,
2013-03-05 17:43:00,36.0,15.6,30.30,NNW,339,5.8,5.8,43,0.00,FEW,,0.00,WeatherDisplay:10.37,2013-03-05 23:43:00,
2013-03-05 17:48:00,35.8,15.4,30.30,NE,36,4.6,4.6,43,0.00,FEW,,0.00,WeatherDisplay:10.37,2013-03-05 23:48:00,
2013-03-05 17:53:00,35.6,15.3,30.30,NNW,328,8.1,8.1,43,0.00,FEW,,0.00,WeatherDisplay:10.37,2013-03-05 23:53:00,
2013-03-05 17:58:00,35.4,15.1,30.30,NNE,32,11.5,11.5,43,0.00,FEW,,0.00,WeatherDisplay:10.37,2013-03-05 23:58:00,
2013-03-05 18:03:00,35.2,16.0,30.30,WNW,282,5.8,5.8,45,0.00,CLR,,0.00,WeatherDisplay:10.37,2013-03-06 00:03:00,
2013-03-05 18:08:00,34.9,15.7,30.30,West,262,8.1,8.1,45,0.00,CLR,,0.00,WeatherDisplay:10.37,2013-03-06 00:08:00,
2013-03-05 18:13:00,34.7,15.5,30.30,NNW,339,9.2,9.2,45,0.00,CLR,,0.00,WeatherDisplay:10.37,2013-03-06 00:13:00,
2013-03-05 18:18:00,34.5,15.3,30.30,WNW,288,5.8,5.8,45,0.00,CLR,,0.00,WeatherDisplay:10.37,2013-03-06 00:18:00,
2013-03-05 18:23:00,34.2,15.0,30.30,NNW,328,7.2,7.2,45,0.00,CLR,,0.00,WeatherDisplay:10.37,2013-03-06 00:23:00,
2013-03-05 18:28:00,34.0,14.8,30.30,NE,46,5.8,5.8,45,0.00,CLR,,0.00,WeatherDisplay:10.37,2013-03-06 00:28:00,
2013-03-05 18:33:00,33.8,14.7,30.30,NW,317,9.2,9.2,45,0.00,CLR,,0.00,WeatherDisplay:10.37,2013-03-06 00:33:00,
2013-03-05 18:38:00,33.6,14.5,30.33,SW,223,10.4,10.4,45,0.00,CLR,,0.00,WeatherDisplay:10.37,2013-03-06 00:38:00,
2013-03-05 18:43:00,33.6,14.5,30.33,NNE,15,10.4,10.4,45,0.00,CLR,,0.00,WeatherDisplay:10.37,2013-03-06 00:43:00,
2013-03-05 18:48:00,33.4,14.3,30.33,WNW,293,5.8,5.8,45,0.00,CLR,,0.00,WeatherDisplay:10.37,2013-03-06 00:48:00,
2013-03-05 18:53:00,33.3,14.2,30.33,West,267,5.8,5.8,45,0.00,CLR,,0.00,WeatherDisplay:10.37,2013-03-06 00:53:00,
2013-03-05 18:58:00,33.1,14.0,30.33,NNE,24,3.5,3.6,45,0.00,CLR,,0.00,WeatherDisplay:10.37,2013-03-06 00:58:00,
2013-03-05 19:03:00,32.9,16.7,30.33,NNE,16,3.5,3.5,51,0.00,CLR,,0.00,WeatherDisplay:10.37,2013-03-06 01:03:00,
2013-03-05 19:08:00,32.7,16.6,30.30,NNW,347,5.8,5.8,51,0.00,CLR,,0.00,WeatherDisplay:10.37,2013-03-06 01:08:00,
2013-03-05 19:13:00,32.5,16.4,30.30,NNW,336,2.3,0.0,51,0.00,CLR,,0.00,WeatherDisplay:10.37,2013-03-06 01:13:00,
2013-03-05 19:18:00,32.4,16.2,30.30,North,349,3.6,3.6,51,0.00,CLR,,0.00,WeatherDisplay:10.37,2013-03-06 01:18:00,
2013-03-05 19:23:00,32.2,16.1,30.33,North,1,3.5,3.5,51,0.00,CLR,,0.00,WeatherDisplay:10.37,2013-03-06 01:23:00,
2013-03-05 19:28:00,32.2,16.1,30.33,NW,308,5.8,5.8,51,0.00,CLR,,0.00,WeatherDisplay:10.37,2013-03-06 01:28:00,
2013-03-05 19:33:00,32.2,16.1,30.33,NNW,348,3.5,3.5,51,0.00,CLR,,0.00,WeatherDisplay:10.37,2013-03-06 01:33:00,
2013-03-05 19:38:00,32.0,15.9,30.33,WNW,293,0.0,0.0,51,0.00,CLR,,0.00,WeatherDisplay:10.37,2013-03-06 01:38:00,
2013-03-05 19:43:00,31.8,15.7,30.33,NNW,339,5.8,5.8,51,0.00,CLR,,0.00,WeatherDisplay:10.37,2013-03-06 01:43:00,
2013-03-05 19:48:00,31.8,15.7,30.33,WNW,291,5.8,5.8,51,0.00,CLR,,0.00,WeatherDisplay:10.37,2013-03-06 01:48:00,
2013-03-05 19:53:00,31.6,15.6,30.33,NNW,330,3.5,0.0,51,0.00,CLR,,0.00,WeatherDisplay:10.37,2013-03-06 01:53:00,
2013-03-05 19:58:00,31.6,15.6,30.33,NNW,328,5.8,5.8,51,0.00,CLR,,0.00,WeatherDisplay:10.37,2013-03-06 01:58:00,
2013-03-05 20:03:00,31.5,16.3,30.33,WNW,286,3.5,3.5,53,0.00,CLR,,0.00,WeatherDisplay:10.37,2013-03-06 02:03:00,
2013-03-05 20:08:00,31.3,16.1,30.33,North,6,5.8,0.0,53,0.00,CLR,,0.00,WeatherDisplay:10.37,2013-03-06 02:08:00,
2013-03-05 20:13:00,31.1,15.9,30.33,North,353,3.6,3.6,53,0.00,CLR,,0.00,WeatherDisplay:10.37,2013-03-06 02:13:00,
2013-03-05 20:18:00,31.1,15.9,30.33,West,268,3.5,3.5,53,0.00,CLR,,0.00,WeatherDisplay:10.37,2013-03-06 02:18:00,
2013-03-05 20:23:00,31.1,15.9,30.33,ENE,78,2.7,0.0,53,0.00,CLR,,0.00,WeatherDisplay:10.37,2013-03-06 02:23:00,
2013-03-05 20:28:00,31.1,15.9,30.33,NNE,20,3.5,3.5,53,0.00,CLR,,0.00,WeatherDisplay:10.37,2013-03-06 02:28:00,
2013-03-05 20:33:00,30.9,15.8,30.33,NW,321,5.8,5.8,53,0.00,CLR,,0.00,WeatherDisplay:10.37,2013-03-06 02:33:00,
2013-03-05 20:38:00,30.9,15.8,30.33,NNW,329,5.8,5.8,53,0.00,CLR,,0.00,WeatherDisplay:10.37,2013-03-06 02:38:00,
2013-03-05 20:43:00,30.9,15.8,30.33,WNW,292,5.8,5.8,53,0.00,CLR,,0.00,WeatherDisplay:10.37,2013-03-06 02:43:00,
2013-03-05 20:48:00,30.7,15.6,30.33,North,357,5.8,0.0,53,0.00,CLR,,0.00,WeatherDisplay:10.37,2013-03-06 02:48:00,
2013-03-05 20:53:00,30.4,15.3,30.36,North,7,3.6,3.6,53,0.00,CLR,,0.00,WeatherDisplay:10.37,2013-03-06 02:53:00,
2013-03-05 20:58:00,30.2,15.1,30.36,NNW,337,2.3,0.0,53,0.00,CLR,,0.00,WeatherDisplay:10.37,2013-03-06 02:58:00,
2013-03-05 21:03:00,30.0,17.8,30.36,North,6,2.3,0.0,60,0.00,CLR,,0.00,WeatherDisplay:10.37,2013-03-06 03:03:00,
2013-03-05 21:08:00,29.8,17.6,30.36,NNW,334,4.6,4.6,60,0.00,CLR,,0.00,WeatherDisplay:10.37,2013-03-06 03:08:00,
2013-03-05 21:13:00,29.8,17.6,30.36,NW,311,5.8,5.8,60,0.00,CLR,,0.00,WeatherDisplay:10.37,2013-03-06 03:13:00,
2013-03-05 21:18:00,29.8,17.6,30.36,NNW,345,3.5,0.0,60,0.00,CLR,,0.00,WeatherDisplay:10.37,2013-03-06 03:18:00,
2013-03-05 21:23:00,29.7,17.5,30.36,West,267,4.6,4.6,60,0.00,CLR,,0.00,WeatherDisplay:10.37,2013-03-06 03:23:00,
2013-03-05 21:28:00,29.5,17.3,30.36,WSW,252,3.5,0.0,60,0.00,CLR,,0.00,WeatherDisplay:10.37,2013-03-06 03:28:00,
2013-03-05 21:33:00,29.3,17.1,30.36,NW,316,2.3,0.0,60,0.00,CLR,,0.00,WeatherDisplay:10.37,2013-03-06 03:33:00,
2013-03-05 21:38:00,29.1,17.0,30.36,NW,314,3.5,0.0,60,0.00,CLR,,0.00,WeatherDisplay:10.37,2013-03-06 03:38:00,
2013-03-05 21:43:00,29.1,17.0,30.36,NW,318,3.5,3.5,60,0.00,CLR,,0.00,WeatherDisplay:10.37,2013-03-06 03:43:00,
2013-03-05 21:48:00,28.9,16.8,30.36,West,277,5.8,5.8,60,0.00,CLR,,0.00,WeatherDisplay:10.37,2013-03-06 03:48:00,
2013-03-05 21:53:00,28.9,16.8,30.36,NW,321,3.5,0.0,60,0.00,CLR,,0.00,WeatherDisplay:10.37,2013-03-06 03:53:00,
2013-03-05 21:58:00,28.9,16.8,30.36,NW,305,2.3,2.3,60,0.00,CLR,,0.00,WeatherDisplay:10.37,2013-03-06 03:58:00,
2013-03-05 22:03:00,28.8,16.6,30.36,NW,314,5.8,5.8,60,0.00,CLR,,0.00,WeatherDisplay:10.37,2013-03-06 04:03:00,
2013-03-05 22:08:00,28.8,16.6,30.39,North,1,3.5,3.5,60,0.00,CLR,,0.00,WeatherDisplay:10.37,2013-03-06 04:08:00,
2013-03-05 22:13:00,28.8,16.6,30.39,North,357,3.5,3.5,60,0.00,CLR,,0.00,WeatherDisplay:10.37,2013-03-06 04:13:00,
2013-03-05 22:18:00,28.6,16.4,30.39,WNW,299,3.5,3.5,60,0.00,CLR,,0.00,WeatherDisplay:10.37,2013-03-06 04:18:00,
2013-03-05 22:23:00,28.6,16.4,30.39,WNW,302,2.3,2.3,60,0.00,CLR,,0.00,WeatherDisplay:10.37,2013-03-06 04:23:00,
2013-03-05 22:28:00,28.4,16.3,30.39,NW,314,3.5,3.5,60,0.00,CLR,,0.00,WeatherDisplay:10.37,2013-03-06 04:28:00,
2013-03-05 22:33:00,28.2,16.1,30.39,West,267,5.8,5.8,60,0.00,CLR,,0.00,WeatherDisplay:10.37,2013-03-06 04:33:00,
2013-03-05 22:38:00,28.2,16.1,30.39,NNE,17,0.0,0.0,60,0.00,CLR,,0.00,WeatherDisplay:10.37,2013-03-06 04:38:00,
2013-03-05 22:43:00,28.2,16.1,30.39,North,1,3.5,0.0,60,0.00,CLR,,0.00,WeatherDisplay:10.37,2013-03-06 04:43:00,
2013-03-05 22:48:00,28.0,15.9,30.39,NW,306,2.2,0.0,60,0.00,CLR,,0.00,WeatherDisplay:10.37,2013-03-06 04:48:00,
2013-03-05 22:53:00,27.9,15.8,30.39,West,268,3.5,0.0,60,0.00,CLR,,0.00,WeatherDisplay:10.37,2013-03-06 04:53:00,
2013-03-05 22:58:00,27.9,15.8,30.39,WSW,245,3.1,0.0,60,0.00,CLR,,0.00,WeatherDisplay:10.37,2013-03-06 04:58:00,
2013-03-05 23:00:00,27.7,15.6,30.39,NW,320,4.6,4.6,60,0.00,CLR,,0.00,WeatherDisplay:10.37,2013-03-06 05:00:00,
2013-03-05 23:05:00,27.7,17.4,30.39,NNW,330,0.0,0.0,65,0.00,CLR,,0.00,WeatherDisplay:10.37,2013-03-06 05:05:00,
2013-03-05 23:10:00,27.5,17.3,30.39,North,6,3.5,0.0,65,0.00,CLR,,0.00,WeatherDisplay:10.37,2013-03-06 05:10:00,
2013-03-05 23:15:00,27.3,17.1,30.39,North,1,3.6,3.6,65,0.00,CLR,,0.00,WeatherDisplay:10.37,2013-03-06 05:15:00,
2013-03-05 23:20:00,27.3,17.1,30.39,NNE,12,3.5,3.5,65,0.00,CLR,,0.00,WeatherDisplay:10.37,2013-03-06 05:20:00,
2013-03-05 23:25:00,27.1,16.9,30.39,North,352,3.5,0.0,65,0.00,CLR,,0.00,WeatherDisplay:10.37,2013-03-06 05:25:00,
2013-03-05 23:30:00,27.0,16.8,30.39,NNW,347,2.3,0.0,65,0.00,CLR,,0.00,WeatherDisplay:10.37,2013-03-06 05:30:00,
2013-03-05 23:35:00,26.8,16.6,30.39,NNW,331,3.1,0.0,65,0.00,CLR,,0.00,WeatherDisplay:10.37,2013-03-06 05:35:00,
2013-03-05 23:40:00,26.8,16.6,30.39,NNW,329,2.3,0.0,65,0.00,CLR,,0.00,WeatherDisplay:10.37,2013-03-06 05:40:00,
2013-03-05 23:45:00,26.4,16.2,30.39,NNW,346,3.5,0.0,65,0.00,CLR,,0.00,WeatherDisplay:10.37,2013-03-06 05:45:00,
2013-03-05 23:50:00,26.2,16.1,30.39,NW,315,3.5,0.0,65,0.00,CLR,,0.00,WeatherDisplay:10.37,2013-03-06 05:50:00,
2013-03-05 23:55:00,26.2,16.1,30.39,North,357,3.5,3.5,65,0.00,CLR,,0.00,WeatherDisplay:10.37,2013-03-06 05:55:00,